sensor_id;sensor_type;location;lat;lon;timestamp;pressure;altitude;pressure_sealevel;temperature;humidity
8699;BME280;4386;51.236;6.742;2022-09-30T00:00:25;100354.88;;;10.17;81.61
8699;BME280;4386;51.236;6.742;2022-09-30T00:01:28;100348.75;;;10.17;81.66
8699;BME280;4386;51.236;6.742;2022-09-30T00:02:29;100352.25;;;10.17;81.75
8699;BME280;4386;51.236;6.742;2022-09-30T00:03:32;100345.13;;;10.18;81.70
8699;BME280;4386;51.236;6.742;2022-09-30T00:04:34;100347.75;;;10.18;81.66
8699;BME280;4386;51.236;6.742;2022-09-30T00:05:36;100348.75;;;10.17;81.60
8699;BME280;4386;51.236;6.742;2022-09-30T00:06:38;100353.19;;;10.16;81.72
8699;BME280;4386;51.236;6.742;2022-09-30T00:07:41;100348.84;;;10.15;81.70
8699;BME280;4386;51.236;6.742;2022-09-30T00:08:42;100349.84;;;10.14;81.69
8699;BME280;4386;51.236;6.742;2022-09-30T00:09:45;100349.00;;;10.14;81.79
8699;BME280;4386;51.236;6.742;2022-09-30T00:10:57;100350.78;;;10.13;81.79
8699;BME280;4386;51.236;6.742;2022-09-30T00:12:00;100357.03;;;10.12;81.68
8699;BME280;4386;51.236;6.742;2022-09-30T00:13:03;100363.16;;;10.13;81.94
8699;BME280;4386;51.236;6.742;2022-09-30T00:14:06;100363.16;;;10.13;81.92
8699;BME280;4386;51.236;6.742;2022-09-30T00:15:10;100363.16;;;10.13;81.81
8699;BME280;4386;51.236;6.742;2022-09-30T00:16:12;100364.88;;;10.14;81.69
8699;BME280;4386;51.236;6.742;2022-09-30T00:17:15;100370.19;;;10.14;81.97
8699;BME280;4386;51.236;6.742;2022-09-30T00:18:17;100371.03;;;10.14;81.78
8699;BME280;4386;51.236;6.742;2022-09-30T00:19:19;100377.97;;;10.15;81.76
8699;BME280;4386;51.236;6.742;2022-09-30T00:20:21;100370.88;;;10.16;81.94
8699;BME280;4386;51.236;6.742;2022-09-30T00:21:25;100381.47;;;10.16;81.75
8699;BME280;4386;51.236;6.742;2022-09-30T00:22:27;100385.09;;;10.15;81.77
8699;BME280;4386;51.236;6.742;2022-09-30T00:23:29;100377.13;;;10.15;81.71
8699;BME280;4386;51.236;6.742;2022-09-30T00:24:31;100384.13;;;10.16;81.88
8699;BME280;4386;51.236;6.742;2022-09-30T00:25:33;100380.53;;;10.17;82.10
8699;BME280;4386;51.236;6.742;2022-09-30T00:26:35;100380.53;;;10.17;81.84
8699;BME280;4386;51.236;6.742;2022-09-30T00:27:38;100381.47;;;10.16;81.79
8699;BME280;4386;51.236;6.742;2022-09-30T00:28:42;100372.69;;;10.15;81.77
8699;BME280;4386;51.236;6.742;2022-09-30T00:29:45;100377.13;;;10.15;81.74
8699;BME280;4386;51.236;6.742;2022-09-30T00:30:46;100375.47;;;10.14;81.89
8699;BME280;4386;51.236;6.742;2022-09-30T00:31:49;100373.75;;;10.13;81.87
8699;BME280;4386;51.236;6.742;2022-09-30T00:32:51;100371.22;;;10.11;81.90
8699;BME280;4386;51.236;6.742;2022-09-30T00:33:53;100377.34;;;10.12;81.89
8699;BME280;4386;51.236;6.742;2022-09-30T00:35:08;100382.81;;;10.10;81.71
8699;BME280;4386;51.236;6.742;2022-09-30T00:36:10;100376.66;;;10.10;81.80
8699;BME280;4386;51.236;6.742;2022-09-30T00:37:12;100377.63;;;10.09;82.08
8699;BME280;4386;51.236;6.742;2022-09-30T00:38:17;100376.78;;;10.08;81.87
8699;BME280;4386;51.236;6.742;2022-09-30T00:39:20;100375.94;;;10.08;81.88
8699;BME280;4386;51.236;6.742;2022-09-30T00:40:24;100384.72;;;10.08;81.86
8699;BME280;4386;51.236;6.742;2022-09-30T00:41:26;100375.94;;;10.08;81.73
8699;BME280;4386;51.236;6.742;2022-09-30T00:42:29;100374.25;;;10.07;81.45
8699;BME280;4386;51.236;6.742;2022-09-30T00:43:43;100375.09;;;10.07;81.77
8699;BME280;4386;51.236;6.742;2022-09-30T00:44:53;100379.56;;;10.07;81.82
8699;BME280;4386;51.236;6.742;2022-09-30T00:45:57;100371.72;;;10.05;81.52
8699;BME280;4386;51.236;6.742;2022-09-30T00:47:01;100375.34;;;10.04;81.68
8699;BME280;4386;51.236;6.742;2022-09-30T00:48:05;100369.22;;;10.04;81.79
8699;BME280;4386;51.236;6.742;2022-09-30T00:49:12;100372.81;;;10.03;81.80
8699;BME280;4386;51.236;6.742;2022-09-30T00:50:27;100379.81;;;10.04;81.66
8699;BME280;4386;51.236;6.742;2022-09-30T00:51:34;100379.81;;;10.04;81.81
8699;BME280;4386;51.236;6.742;2022-09-30T00:52:37;100378.97;;;10.03;81.63
8699;BME280;4386;51.236;6.742;2022-09-30T00:53:49;100375.47;;;10.03;81.99
8699;BME280;4386;51.236;6.742;2022-09-30T00:54:52;100378.13;;;10.03;81.76
8699;BME280;4386;51.236;6.742;2022-09-30T00:55:57;100380.06;;;10.01;81.79
8699;BME280;4386;51.236;6.742;2022-09-30T00:57:02;100377.41;;;10.01;81.90
8699;BME280;4386;51.236;6.742;2022-09-30T00:58:07;100380.16;;;9.99;81.82
8699;BME280;4386;51.236;6.742;2022-09-30T00:59:15;100380.31;;;9.98;81.77
8699;BME280;4386;51.236;6.742;2022-09-30T01:00:18;100383.91;;;9.97;81.91
8699;BME280;4386;51.236;6.742;2022-09-30T01:01:22;100379.47;;;9.97;81.81
8699;BME280;4386;51.236;6.742;2022-09-30T01:02:24;100384.75;;;9.97;81.87
8699;BME280;4386;51.236;6.742;2022-09-30T01:03:29;100382.13;;;9.97;81.86
8699;BME280;4386;51.236;6.742;2022-09-30T01:04:31;100384.88;;;9.95;82.16
8699;BME280;4386;51.236;6.742;2022-09-30T01:05:36;100379.56;;;9.95;81.95
8699;BME280;4386;51.236;6.742;2022-09-30T01:06:39;100387.50;;;9.95;82.14
8699;BME280;4386;51.236;6.742;2022-09-30T01:07:44;100377.06;;;9.94;82.04
8699;BME280;4386;51.236;6.742;2022-09-30T01:08:47;100392.81;;;9.95;82.17
8699;BME280;4386;51.236;6.742;2022-09-30T01:09:51;100389.31;;;9.95;82.11
8699;BME280;4386;51.236;6.742;2022-09-30T01:10:52;100390.16;;;9.95;81.94
8699;BME280;4386;51.236;6.742;2022-09-30T01:11:55;100395.47;;;9.95;81.90
8699;BME280;4386;51.236;6.742;2022-09-30T01:12:57;100392.81;;;9.95;82.10
8699;BME280;4386;51.236;6.742;2022-09-30T01:14:15;100392.81;;;9.95;82.10
8699;BME280;4386;51.236;6.742;2022-09-30T01:15:23;100391.16;;;9.94;82.07
8699;BME280;4386;51.236;6.742;2022-09-30T01:16:47;100403.53;;;9.94;81.93
8699;BME280;4386;51.236;6.742;2022-09-30T01:18:01;100400.75;;;9.95;82.01
8699;BME280;4386;51.236;6.742;2022-09-30T01:19:23;100393.78;;;9.94;82.05
8699;BME280;4386;51.236;6.742;2022-09-30T01:22:18;100400.03;;;9.93;81.71
8699;BME280;4386;51.236;6.742;2022-09-30T01:23:46;100399.19;;;9.93;81.94
8699;BME280;4386;51.236;6.742;2022-09-30T01:26:48;100401.94;;;9.91;81.89
8699;BME280;4386;51.236;6.742;2022-09-30T01:28:22;100405.44;;;9.92;81.92
8699;BME280;4386;51.236;6.742;2022-09-30T01:29:48;100408.22;;;9.90;81.76
8699;BME280;4386;51.236;6.742;2022-09-30T01:31:16;100409.34;;;9.88;81.94
8699;BME280;4386;51.236;6.742;2022-09-30T01:32:29;100409.44;;;9.86;81.78
8699;BME280;4386;51.236;6.742;2022-09-30T01:33:40;100405.00;;;9.87;81.98
8699;BME280;4386;51.236;6.742;2022-09-30T01:34:51;100405.09;;;9.85;82.03
8699;BME280;4386;51.236;6.742;2022-09-30T01:36:19;100400.78;;;9.84;81.96
8699;BME280;4386;51.236;6.742;2022-09-30T01:37:33;100395.59;;;9.83;82.09
8699;BME280;4386;51.236;6.742;2022-09-30T01:38:46;100400.31;;;9.79;82.38
8699;BME280;4386;51.236;6.742;2022-09-30T01:39:59;100396.81;;;9.79;82.04
8699;BME280;4386;51.236;6.742;2022-09-30T01:41:08;100404.88;;;9.77;82.25
8699;BME280;4386;51.236;6.742;2022-09-30T01:42:16;100397.19;;;9.74;82.11
8699;BME280;4386;51.236;6.742;2022-09-30T01:43:25;100402.50;;;9.74;82.28
8699;BME280;4386;51.236;6.742;2022-09-30T01:44:34;100398.16;;;9.73;82.18
8699;BME280;4386;51.236;6.742;2022-09-30T01:45:42;100402.59;;;9.73;82.33
8699;BME280;4386;51.236;6.742;2022-09-30T01:46:51;100400.09;;;9.71;82.46
8699;BME280;4386;51.236;6.742;2022-09-30T01:47:59;100400.09;;;9.71;82.49
8699;BME280;4386;51.236;6.742;2022-09-30T01:49:07;100403.69;;;9.70;82.58
8699;BME280;4386;51.236;6.742;2022-09-30T01:50:18;100402.00;;;9.69;82.63
8699;BME280;4386;51.236;6.742;2022-09-30T01:51:29;100402.00;;;9.69;82.54
8699;BME280;4386;51.236;6.742;2022-09-30T01:52:38;100394.19;;;9.68;82.57
8699;BME280;4386;51.236;6.742;2022-09-30T01:53:44;100399.59;;;9.66;82.91
8699;BME280;4386;51.236;6.742;2022-09-30T01:54:52;100403.09;;;9.67;82.77
8699;BME280;4386;51.236;6.742;2022-09-30T01:55:59;100398.75;;;9.66;82.73
8699;BME280;4386;51.236;6.742;2022-09-30T01:57:08;100398.03;;;9.64;82.89
8699;BME280;4386;51.236;6.742;2022-09-30T01:58:15;100402.47;;;9.63;82.79
8699;BME280;4386;51.236;6.742;2022-09-30T01:59:23;100404.28;;;9.63;82.87
8699;BME280;4386;51.236;6.742;2022-09-30T02:00:27;100402.63;;;9.62;82.69
8699;BME280;4386;51.236;6.742;2022-09-30T02:01:34;100404.28;;;9.63;82.93
8699;BME280;4386;51.236;6.742;2022-09-30T02:02:45;100407.91;;;9.62;82.47
8699;BME280;4386;51.236;6.742;2022-09-30T02:03:52;100403.56;;;9.61;82.92
8699;BME280;4386;51.236;6.742;2022-09-30T02:04:59;100408.88;;;9.61;82.99
8699;BME280;4386;51.236;6.742;2022-09-30T02:06:06;100406.34;;;9.59;82.97
8699;BME280;4386;51.236;6.742;2022-09-30T02:07:12;100406.34;;;9.59;83.11
8699;BME280;4386;51.236;6.742;2022-09-30T02:08:20;100409.97;;;9.58;83.13
8699;BME280;4386;51.236;6.742;2022-09-30T02:09:27;100409.13;;;9.58;83.01
8699;BME280;4386;51.236;6.742;2022-09-30T02:10:33;100401.28;;;9.56;83.11
8699;BME280;4386;51.236;6.742;2022-09-30T02:11:36;100410.91;;;9.57;83.25
8699;BME280;4386;51.236;6.742;2022-09-30T02:12:43;100405.63;;;9.57;83.32
8699;BME280;4386;51.236;6.742;2022-09-30T02:13:52;100403.94;;;9.56;83.22
8699;BME280;4386;51.236;6.742;2022-09-30T02:14:58;100402.13;;;9.57;83.25
8699;BME280;4386;51.236;6.742;2022-09-30T02:16:05;100397.69;;;9.57;83.37
8699;BME280;4386;51.236;6.742;2022-09-30T02:17:16;100397.69;;;9.57;83.46
8699;BME280;4386;51.236;6.742;2022-09-30T02:18:25;100399.47;;;9.57;83.42
8699;BME280;4386;51.236;6.742;2022-09-30T02:19:32;100405.63;;;9.57;83.20
8699;BME280;4386;51.236;6.742;2022-09-30T02:20:40;100400.34;;;9.57;83.33
8699;BME280;4386;51.236;6.742;2022-09-30T02:21:47;100402.13;;;9.57;83.41
8699;BME280;4386;51.236;6.742;2022-09-30T02:22:55;100395.03;;;9.57;83.37
8699;BME280;4386;51.236;6.742;2022-09-30T02:24:06;100395.16;;;9.56;83.29
8699;BME280;4386;51.236;6.742;2022-09-30T02:25:14;100393.34;;;9.56;83.43
8699;BME280;4386;51.236;6.742;2022-09-30T02:26:23;100390.69;;;9.56;83.47
8699;BME280;4386;51.236;6.742;2022-09-30T02:27:35;100386.41;;;9.55;83.29
8699;BME280;4386;51.236;6.742;2022-09-30T02:28:45;100396.97;;;9.55;83.61
8699;BME280;4386;51.236;6.742;2022-09-30T02:29:52;100392.63;;;9.54;83.27
8699;BME280;4386;51.236;6.742;2022-09-30T02:30:58;100402.25;;;9.55;83.61
8699;BME280;4386;51.236;6.742;2022-09-30T02:32:05;100397.94;;;9.54;83.43
8699;BME280;4386;51.236;6.742;2022-09-30T02:33:11;100407.66;;;9.54;83.45
8699;BME280;4386;51.236;6.742;2022-09-30T02:34:18;100407.56;;;9.55;83.51
8699;BME280;4386;51.236;6.742;2022-09-30T02:35:25;100404.06;;;9.55;83.51
8699;BME280;4386;51.236;6.742;2022-09-30T02:36:32;100407.66;;;9.54;83.57
8699;BME280;4386;51.236;6.742;2022-09-30T02:37:39;100408.50;;;9.54;83.48
8699;BME280;4386;51.236;6.742;2022-09-30T02:38:44;100401.53;;;9.53;83.59
8699;BME280;4386;51.236;6.742;2022-09-30T02:39:52;100405.03;;;9.54;83.56
8699;BME280;4386;51.236;6.742;2022-09-30T02:40:59;100410.41;;;9.52;83.62
8699;BME280;4386;51.236;6.742;2022-09-30T02:42:09;100410.41;;;9.52;83.74
8699;BME280;4386;51.236;6.742;2022-09-30T02:43:14;100408.63;;;9.53;83.64
8699;BME280;4386;51.236;6.742;2022-09-30T02:44:18;100410.56;;;9.51;83.80
8699;BME280;4386;51.236;6.742;2022-09-30T02:45:22;100412.34;;;9.50;83.82
8699;BME280;4386;51.236;6.742;2022-09-30T02:46:33;100410.66;;;9.49;83.85
8699;BME280;4386;51.236;6.742;2022-09-30T02:47:44;100412.34;;;9.50;83.97
8699;BME280;4386;51.236;6.742;2022-09-30T02:48:56;100413.31;;;9.49;83.88
8699;BME280;4386;51.236;6.742;2022-09-30T02:50:07;100416.94;;;9.48;83.82
8699;BME280;4386;51.236;6.742;2022-09-30T02:51:16;100414.28;;;9.48;83.92
8699;BME280;4386;51.236;6.742;2022-09-30T02:52:24;100413.44;;;9.48;83.76
8699;BME280;4386;51.236;6.742;2022-09-30T02:53:32;100415.38;;;9.46;83.81
8699;BME280;4386;51.236;6.742;2022-09-30T02:54:47;100414.53;;;9.45;83.83
8699;BME280;4386;51.236;6.742;2022-09-30T02:56:05;100415.47;;;9.44;83.89
8699;BME280;4386;51.236;6.742;2022-09-30T02:57:16;100421.63;;;9.45;84.06
8699;BME280;4386;51.236;6.742;2022-09-30T02:58:21;100417.28;;;9.43;83.94
8699;BME280;4386;51.236;6.742;2022-09-30T02:59:26;100417.28;;;9.43;83.83
8699;BME280;4386;51.236;6.742;2022-09-30T03:00:29;100413.78;;;9.43;84.09
8699;BME280;4386;51.236;6.742;2022-09-30T03:01:31;100421.72;;;9.43;83.80
8699;BME280;4386;51.236;6.742;2022-09-30T03:02:34;100424.38;;;9.43;83.95
8699;BME280;4386;51.236;6.742;2022-09-30T03:03:38;100420.06;;;9.42;83.98
8699;BME280;4386;51.236;6.742;2022-09-30T03:04:42;100429.66;;;9.43;84.16
8699;BME280;4386;51.236;6.742;2022-09-30T03:05:49;100422.72;;;9.42;84.06
8699;BME280;4386;51.236;6.742;2022-09-30T03:06:52;100428.72;;;9.44;83.64
8699;BME280;4386;51.236;6.742;2022-09-30T03:07:54;100431.34;;;9.44;84.05
8699;BME280;4386;51.236;6.742;2022-09-30T03:08:57;100427.00;;;9.43;84.13
8699;BME280;4386;51.236;6.742;2022-09-30T03:09:59;100425.34;;;9.42;83.96
8699;BME280;4386;51.236;6.742;2022-09-30T03:11:02;100419.22;;;9.41;84.03
8699;BME280;4386;51.236;6.742;2022-09-30T03:12:11;100423.66;;;9.41;84.34
8699;BME280;4386;51.236;6.742;2022-09-30T03:13:28;100421.97;;;9.40;84.24
8699;BME280;4386;51.236;6.742;2022-09-30T03:14:44;100420.31;;;9.39;84.06
8699;BME280;4386;51.236;6.742;2022-09-30T03:16:03;100423.91;;;9.38;84.22
8699;BME280;4386;51.236;6.742;2022-09-30T03:17:25;100425.69;;;9.37;84.36
8699;BME280;4386;51.236;6.742;2022-09-30T03:18:48;100434.72;;;9.35;84.35
8699;BME280;4386;51.236;6.742;2022-09-30T03:20:07;100431.09;;;9.36;84.02
8699;BME280;4386;51.236;6.742;2022-09-30T03:21:29;100429.44;;;9.35;84.04
8699;BME280;4386;51.236;6.742;2022-09-30T03:22:46;100434.81;;;9.33;84.00
8699;BME280;4386;51.236;6.742;2022-09-30T03:24:08;100430.50;;;9.32;84.33
8699;BME280;4386;51.236;6.742;2022-09-30T03:25:22;100435.91;;;9.31;84.18
8699;BME280;4386;51.236;6.742;2022-09-30T03:26:36;100438.66;;;9.29;84.36
8699;BME280;4386;51.236;6.742;2022-09-30T03:27:50;100435.19;;;9.29;84.16
8699;BME280;4386;51.236;6.742;2022-09-30T03:29:02;100441.44;;;9.28;84.33
8699;BME280;4386;51.236;6.742;2022-09-30T03:30:10;100445.78;;;9.29;84.36
8699;BME280;4386;51.236;6.742;2022-09-30T03:31:21;100441.44;;;9.28;84.33
8699;BME280;4386;51.236;6.742;2022-09-30T03:32:33;100440.72;;;9.26;84.28
8699;BME280;4386;51.236;6.742;2022-09-30T03:33:46;100446.00;;;9.26;84.27
8699;BME280;4386;51.236;6.742;2022-09-30T03:34:59;100448.66;;;9.26;84.27
8699;BME280;4386;51.236;6.742;2022-09-30T03:36:05;100444.31;;;9.25;84.23
8699;BME280;4386;51.236;6.742;2022-09-30T03:37:15;100430.25;;;9.24;84.34
8699;BME280;4386;51.236;6.742;2022-09-30T03:38:29;100445.28;;;9.24;84.30
8699;BME280;4386;51.236;6.742;2022-09-30T03:39:50;100443.47;;;9.24;84.47
8699;BME280;4386;51.236;6.742;2022-09-30T03:40:59;100444.31;;;9.25;84.26
8699;BME280;4386;51.236;6.742;2022-09-30T03:42:09;100440.72;;;9.26;84.34
8699;BME280;4386;51.236;6.742;2022-09-30T03:43:18;100439.03;;;9.25;84.12
8699;BME280;4386;51.236;6.742;2022-09-30T03:44:26;100440.81;;;9.24;84.19
8699;BME280;4386;51.236;6.742;2022-09-30T03:45:40;100438.19;;;9.24;84.10
8699;BME280;4386;51.236;6.742;2022-09-30T03:46:49;100443.47;;;9.24;84.61
8699;BME280;4386;51.236;6.742;2022-09-30T03:47:55;100448.75;;;9.24;84.16
8699;BME280;4386;51.236;6.742;2022-09-30T03:49:01;100449.72;;;9.23;84.54
8699;BME280;4386;51.236;6.742;2022-09-30T03:50:07;100447.81;;;9.25;84.54
8699;BME280;4386;51.236;6.742;2022-09-30T03:51:10;100450.47;;;9.25;84.57
8699;BME280;4386;51.236;6.742;2022-09-30T03:52:15;100456.59;;;9.26;84.49
8699;BME280;4386;51.236;6.742;2022-09-30T03:53:17;100457.41;;;9.26;84.43
8699;BME280;4386;51.236;6.742;2022-09-30T03:54:20;100458.25;;;9.27;84.55
8699;BME280;4386;51.236;6.742;2022-09-30T03:55:23;100459.09;;;9.27;84.59
8699;BME280;4386;51.236;6.742;2022-09-30T03:56:27;100451.31;;;9.26;84.36
8699;BME280;4386;51.236;6.742;2022-09-30T03:57:30;100456.59;;;9.26;84.60
8699;BME280;4386;51.236;6.742;2022-09-30T03:58:33;100455.75;;;9.25;84.89
8699;BME280;4386;51.236;6.742;2022-09-30T03:59:35;100452.25;;;9.25;84.87
8699;BME280;4386;51.236;6.742;2022-09-30T04:00:38;100457.53;;;9.25;84.78
8699;BME280;4386;51.236;6.742;2022-09-30T04:01:43;100454.16;;;9.23;84.71
8699;BME280;4386;51.236;6.742;2022-09-30T04:02:45;100449.72;;;9.23;84.81
8699;BME280;4386;51.236;6.742;2022-09-30T04:03:47;100451.50;;;9.23;84.89
8699;BME280;4386;51.236;6.742;2022-09-30T04:04:52;100451.50;;;9.23;84.92
8699;BME280;4386;51.236;6.742;2022-09-30T04:05:54;100451.63;;;9.21;84.75
8699;BME280;4386;51.236;6.742;2022-09-30T04:06:56;100451.63;;;9.21;84.82
8699;BME280;4386;51.236;6.742;2022-09-30T04:07:59;100452.59;;;9.20;85.20
8699;BME280;4386;51.236;6.742;2022-09-30T04:09:02;100453.56;;;9.19;84.88
8699;BME280;4386;51.236;6.742;2022-09-30T04:10:04;100452.84;;;9.17;85.00
8699;BME280;4386;51.236;6.742;2022-09-30T04:11:07;100452.84;;;9.17;84.78
8699;BME280;4386;51.236;6.742;2022-09-30T04:12:09;100462.56;;;9.17;84.85
8699;BME280;4386;51.236;6.742;2022-09-30T04:13:11;100457.41;;;9.15;85.10
8699;BME280;4386;51.236;6.742;2022-09-30T04:14:13;100460.03;;;9.15;84.93
8699;BME280;4386;51.236;6.742;2022-09-30T04:15:16;100462.78;;;9.14;84.89
8699;BME280;4386;51.236;6.742;2022-09-30T04:16:17;100462.78;;;9.14;85.04
8699;BME280;4386;51.236;6.742;2022-09-30T04:17:20;100473.25;;;9.15;84.98
8699;BME280;4386;51.236;6.742;2022-09-30T04:18:22;100471.47;;;9.16;84.94
8699;BME280;4386;51.236;6.742;2022-09-30T04:19:25;100472.28;;;9.16;84.84
8699;BME280;4386;51.236;6.742;2022-09-30T04:20:28;100467.97;;;9.15;85.01
8699;BME280;4386;51.236;6.742;2022-09-30T04:21:31;100473.38;;;9.14;85.29
8699;BME280;4386;51.236;6.742;2022-09-30T04:22:32;100473.38;;;9.14;84.93
8699;BME280;4386;51.236;6.742;2022-09-30T04:23:37;100473.50;;;9.12;85.01
8699;BME280;4386;51.236;6.742;2022-09-30T04:24:38;100479.75;;;9.11;84.90
8699;BME280;4386;51.236;6.742;2022-09-30T04:25:41;100474.44;;;9.11;85.20
8699;BME280;4386;51.236;6.742;2022-09-30T04:26:42;100485.03;;;9.11;85.11
8699;BME280;4386;51.236;6.742;2022-09-30T04:27:45;100494.75;;;9.11;85.15
8699;BME280;4386;51.236;6.742;2022-09-30T04:28:46;100484.19;;;9.11;85.24
8699;BME280;4386;51.236;6.742;2022-09-30T04:29:49;100487.78;;;9.10;85.06
8699;BME280;4386;51.236;6.742;2022-09-30T04:30:50;100493.06;;;9.10;85.25
8699;BME280;4386;51.236;6.742;2022-09-30T04:31:53;100487.91;;;9.08;85.12
8699;BME280;4386;51.236;6.742;2022-09-30T04:32:55;100486.09;;;9.09;85.17
8699;BME280;4386;51.236;6.742;2022-09-30T04:33:58;100488.84;;;9.07;85.09
8699;BME280;4386;51.236;6.742;2022-09-30T04:34:59;100490.66;;;9.07;85.37
8699;BME280;4386;51.236;6.742;2022-09-30T04:36:03;100494.28;;;9.06;85.24
8699;BME280;4386;51.236;6.742;2022-09-30T04:37:04;100481.06;;;9.06;85.12
8699;BME280;4386;51.236;6.742;2022-09-30T04:38:11;100495.22;;;9.05;85.47
8699;BME280;4386;51.236;6.742;2022-09-30T04:39:14;100488.22;;;9.04;85.20
8699;BME280;4386;51.236;6.742;2022-09-30T04:40:16;100490.88;;;9.04;85.42
8699;BME280;4386;51.236;6.742;2022-09-30T04:41:18;100487.28;;;9.05;85.39
8699;BME280;4386;51.236;6.742;2022-09-30T04:42:21;100489.09;;;9.04;85.39
8699;BME280;4386;51.236;6.742;2022-09-30T04:43:23;100485.59;;;9.04;85.22
8699;BME280;4386;51.236;6.742;2022-09-30T04:44:26;100486.56;;;9.03;85.36
8699;BME280;4386;51.236;6.742;2022-09-30T04:45:29;100487.28;;;9.05;85.31
8699;BME280;4386;51.236;6.742;2022-09-30T04:46:31;100489.94;;;9.05;85.33
8699;BME280;4386;51.236;6.742;2022-09-30T04:47:34;100489.84;;;9.06;85.36
8699;BME280;4386;51.236;6.742;2022-09-30T04:48:35;100488.97;;;9.06;85.34
8699;BME280;4386;51.236;6.742;2022-09-30T04:49:38;100491.63;;;9.06;85.31
8699;BME280;4386;51.236;6.742;2022-09-30T04:50:40;100492.47;;;9.06;85.33
8699;BME280;4386;51.236;6.742;2022-09-30T04:51:42;100493.28;;;9.07;85.14
8699;BME280;4386;51.236;6.742;2022-09-30T04:52:46;100499.56;;;9.06;85.28
8699;BME280;4386;51.236;6.742;2022-09-30T04:53:48;100496.06;;;9.05;85.24
8699;BME280;4386;51.236;6.742;2022-09-30T04:54:52;100488.22;;;9.04;85.18
8699;BME280;4386;51.236;6.742;2022-09-30T04:55:58;100500.50;;;9.05;85.27
8699;BME280;4386;51.236;6.742;2022-09-30T04:57:00;100491.84;;;9.03;85.35
8699;BME280;4386;51.236;6.742;2022-09-30T04:58:03;100498.81;;;9.04;85.28
8699;BME280;4386;51.236;6.742;2022-09-30T04:59:04;100498.81;;;9.04;85.27
8699;BME280;4386;51.236;6.742;2022-09-30T05:00:09;100496.16;;;9.04;85.43
8699;BME280;4386;51.236;6.742;2022-09-30T05:01:16;100497.97;;;9.03;85.60
8699;BME280;4386;51.236;6.742;2022-09-30T05:02:17;100502.44;;;9.03;85.31
8699;BME280;4386;51.236;6.742;2022-09-30T05:03:20;100504.22;;;9.02;85.40
8699;BME280;4386;51.236;6.742;2022-09-30T05:04:22;100500.75;;;9.02;85.55
8699;BME280;4386;51.236;6.742;2022-09-30T05:05:24;100509.50;;;9.02;85.50
8699;BME280;4386;51.236;6.742;2022-09-30T05:06:26;100506.03;;;9.02;85.50
8699;BME280;4386;51.236;6.742;2022-09-30T05:07:29;100508.66;;;9.02;85.63
8699;BME280;4386;51.236;6.742;2022-09-30T05:08:32;100514.91;;;9.01;85.68
8699;BME280;4386;51.236;6.742;2022-09-30T05:09:35;100517.53;;;9.01;85.43
8699;BME280;4386;51.236;6.742;2022-09-30T05:10:38;100510.47;;;9.01;85.61
8699;BME280;4386;51.236;6.742;2022-09-30T05:11:40;100510.47;;;9.01;85.67
8699;BME280;4386;51.236;6.742;2022-09-30T05:12:42;100503.47;;;9.00;85.85
8699;BME280;4386;51.236;6.742;2022-09-30T05:13:45;100514.91;;;9.01;85.63
8699;BME280;4386;51.236;6.742;2022-09-30T05:14:47;100510.59;;;9.00;85.65
8699;BME280;4386;51.236;6.742;2022-09-30T05:15:50;100513.22;;;9.00;85.57
8699;BME280;4386;51.236;6.742;2022-09-30T05:16:52;100511.53;;;8.99;85.49
8699;BME280;4386;51.236;6.742;2022-09-30T05:17:54;100515.97;;;8.98;85.61
8699;BME280;4386;51.236;6.742;2022-09-30T05:18:56;100519.47;;;8.99;85.53
8699;BME280;4386;51.236;6.742;2022-09-30T05:19:59;100521.25;;;8.98;85.57
8699;BME280;4386;51.236;6.742;2022-09-30T05:21:01;100526.44;;;9.00;85.80
8699;BME280;4386;51.236;6.742;2022-09-30T05:22:04;100530.03;;;8.99;85.58
8699;BME280;4386;51.236;6.742;2022-09-30T05:23:06;100524.75;;;8.99;85.79
8699;BME280;4386;51.236;6.742;2022-09-30T05:24:08;100527.41;;;8.99;85.78
8699;BME280;4386;51.236;6.742;2022-09-30T05:25:11;100525.69;;;8.98;85.72
8699;BME280;4386;51.236;6.742;2022-09-30T05:26:14;100526.56;;;8.98;85.56
8699;BME280;4386;51.236;6.742;2022-09-30T05:27:17;100526.56;;;8.98;85.62
8699;BME280;4386;51.236;6.742;2022-09-30T05:28:18;100525.69;;;8.98;85.73
8699;BME280;4386;51.236;6.742;2022-09-30T05:29:21;100528.34;;;8.98;85.73
8699;BME280;4386;51.236;6.742;2022-09-30T05:30:23;100531.94;;;8.97;85.58
8699;BME280;4386;51.236;6.742;2022-09-30T05:31:25;100527.50;;;8.97;85.95
8699;BME280;4386;51.236;6.742;2022-09-30T05:32:29;100533.75;;;8.96;85.69
8699;BME280;4386;51.236;6.742;2022-09-30T05:33:33;100539.88;;;8.97;85.75
8699;BME280;4386;51.236;6.742;2022-09-30T05:34:35;100541.56;;;8.98;85.58
8699;BME280;4386;51.236;6.742;2022-09-30T05:35:40;100549.50;;;8.98;85.81
8699;BME280;4386;51.236;6.742;2022-09-30T05:36:42;100544.19;;;8.98;85.68
8699;BME280;4386;51.236;6.742;2022-09-30T05:37:45;100553.81;;;8.99;85.66
8699;BME280;4386;51.236;6.742;2022-09-30T05:38:49;100552.88;;;9.00;85.53
8699;BME280;4386;51.236;6.742;2022-09-30T05:39:52;100551.06;;;9.00;85.54
8699;BME280;4386;51.236;6.742;2022-09-30T05:40:55;100562.47;;;9.01;85.32
8699;BME280;4386;51.236;6.742;2022-09-30T05:41:59;100562.47;;;9.01;85.51
8699;BME280;4386;51.236;6.742;2022-09-30T05:43:01;100565.97;;;9.01;85.56
8699;BME280;4386;51.236;6.742;2022-09-30T05:44:04;100566.81;;;9.02;85.42
8699;BME280;4386;51.236;6.742;2022-09-30T05:45:06;100565.13;;;9.01;85.43
8699;BME280;4386;51.236;6.742;2022-09-30T05:46:09;100566.81;;;9.02;85.52
8699;BME280;4386;51.236;6.742;2022-09-30T05:47:11;100564.16;;;9.02;85.39
8699;BME280;4386;51.236;6.742;2022-09-30T05:48:13;100571.97;;;9.03;85.28
8699;BME280;4386;51.236;6.742;2022-09-30T05:49:15;100573.66;;;9.04;85.15
8699;BME280;4386;51.236;6.742;2022-09-30T05:50:18;100570.16;;;9.04;85.28
8699;BME280;4386;51.236;6.742;2022-09-30T05:51:20;100574.50;;;9.05;85.14
8699;BME280;4386;51.236;6.742;2022-09-30T05:52:23;100571.03;;;9.04;85.20
8699;BME280;4386;51.236;6.742;2022-09-30T05:53:24;100569.22;;;9.05;85.24
8699;BME280;4386;51.236;6.742;2022-09-30T05:54:27;100571.88;;;9.05;85.14
8699;BME280;4386;51.236;6.742;2022-09-30T05:55:29;100567.31;;;9.07;85.35
8699;BME280;4386;51.236;6.742;2022-09-30T05:56:39;100571.78;;;9.06;85.34
8699;BME280;4386;51.236;6.742;2022-09-30T05:57:43;100572.59;;;9.07;85.18
8699;BME280;4386;51.236;6.742;2022-09-30T05:58:48;100580.41;;;9.08;85.23
8699;BME280;4386;51.236;6.742;2022-09-30T05:59:51;100574.19;;;9.09;85.35
8699;BME280;4386;51.236;6.742;2022-09-30T06:00:52;100576.69;;;9.11;85.26
8699;BME280;4386;51.236;6.742;2022-09-30T06:01:55;100575.75;;;9.12;85.18